createdAt,value
2023-05-13T00:01:50.695Z,0.20
2023-05-13T00:04:17.210Z,0.20
2023-05-13T00:06:43.722Z,0.20
2023-05-13T00:09:10.210Z,0.20
2023-05-13T00:11:36.768Z,0.30
2023-05-13T00:14:03.893Z,0.22
2023-05-13T00:16:30.480Z,0.30
2023-05-13T00:18:57.059Z,0.28
2023-05-13T00:21:23.831Z,0.20
2023-05-13T00:23:50.618Z,0.30
2023-05-13T00:26:17.205Z,0.20
2023-05-13T00:28:43.687Z,0.40
2023-05-13T00:31:10.298Z,0.20
2023-05-13T00:33:37.590Z,0.38
2023-05-13T00:36:04.613Z,0.20
2023-05-13T00:38:31.108Z,0.20
2023-05-13T00:40:57.597Z,0.20
2023-05-13T00:43:24.123Z,0.22
2023-05-13T00:45:50.749Z,0.20
2023-05-13T00:48:17.702Z,0.20
2023-05-13T00:50:44.846Z,0.17
2023-05-13T00:53:12.746Z,0.22
2023-05-13T00:55:46.151Z,0.40
2023-05-13T00:58:13.373Z,0.30
2023-05-13T01:00:54.035Z,0.10
2023-05-13T01:03:42.833Z,0.20
2023-05-13T01:06:16.285Z,0.10
2023-05-13T01:09:02.374Z,0.50
2023-05-13T01:11:35.583Z,0.20
2023-05-13T01:14:09.066Z,0.30
2023-05-13T01:16:43.537Z,0.17
2023-05-13T01:19:38.774Z,0.15
2023-05-13T01:22:06.763Z,0.20
2023-05-13T01:24:33.481Z,0.20
2023-05-13T01:27:00.511Z,0.20
2023-05-13T01:29:27.462Z,0.25
2023-05-13T01:31:55.453Z,0.20
2023-05-13T01:34:23.515Z,0.30
2023-05-13T01:36:50.226Z,0.10
2023-05-13T01:39:19.414Z,0.20
2023-05-13T01:41:46.005Z,0.20
2023-05-13T01:44:12.567Z,0.22
2023-05-13T01:46:39.398Z,0.30
2023-05-13T01:49:07.747Z,0.22
2023-05-13T01:51:34.259Z,0.20
2023-05-13T01:54:01.252Z,0.13
2023-05-13T01:56:27.818Z,0.28
2023-05-13T01:58:54.297Z,0.25
2023-05-13T02:01:22.558Z,0.20
2023-05-13T02:03:50.209Z,0.30
2023-05-13T02:06:16.940Z,0.25
2023-05-13T02:08:43.424Z,0.50
2023-05-13T02:11:09.909Z,0.20
2023-05-13T02:13:36.427Z,0.30
2023-05-13T02:16:03.440Z,0.10
2023-05-13T02:18:30.014Z,0.30
2023-05-13T02:20:57.493Z,0.20
2023-05-13T02:23:23.986Z,0.25
2023-05-13T02:25:50.501Z,0.13
2023-05-13T02:28:17.039Z,0.20
2023-05-13T02:30:43.573Z,0.20
2023-05-13T02:33:10.370Z,0.20
2023-05-13T02:35:36.867Z,0.17
2023-05-13T02:38:04.414Z,0.10
2023-05-13T02:40:30.967Z,0.10
2023-05-13T02:42:57.452Z,0.20
2023-05-13T02:45:24.136Z,0.10
2023-05-13T02:47:50.671Z,0.10
2023-05-13T02:50:17.261Z,0.30
2023-05-13T02:52:44.137Z,0.30
2023-05-13T02:55:11.017Z,0.10
2023-05-13T02:57:40.484Z,0.30
2023-05-13T03:00:07.588Z,0.35
2023-05-13T03:02:34.962Z,0.10
2023-05-13T03:05:01.648Z,0.10
2023-05-13T03:07:28.218Z,0.22
2023-05-13T03:09:54.753Z,0.30
2023-05-13T03:12:21.469Z,0.20
2023-05-13T03:14:47.986Z,0.30
2023-05-13T03:17:14.495Z,0.20
2023-05-13T03:19:41.016Z,0.10
2023-05-13T03:22:07.559Z,0.10
2023-05-13T03:24:34.100Z,0.45
2023-05-13T03:27:00.847Z,0.20
2023-05-13T03:29:27.355Z,0.20
2023-05-13T03:31:54.373Z,0.05
2023-05-13T03:34:20.919Z,0.10
2023-05-13T03:36:47.491Z,0.20
2023-05-13T03:39:13.990Z,0.22
2023-05-13T03:41:40.565Z,0.30
2023-05-13T03:44:07.076Z,0.20
2023-05-13T03:46:34.178Z,0.10
2023-05-13T03:49:00.883Z,0.20
2023-05-13T03:51:27.456Z,0.15
2023-05-13T03:53:54.047Z,0.20
2023-05-13T03:56:21.601Z,0.30
2023-05-13T03:58:48.284Z,0.15
2023-05-13T04:01:14.764Z,0.20
2023-05-13T04:03:44.186Z,0.20
2023-05-13T04:06:11.034Z,0.20
2023-05-13T04:08:37.588Z,0.10
2023-05-13T04:11:04.232Z,0.30
2023-05-13T04:13:30.870Z,0.17
2023-05-13T04:15:58.074Z,0.13
2023-05-13T04:18:24.621Z,0.20
2023-05-13T04:20:51.115Z,0.40
2023-05-13T04:23:17.645Z,0.30
2023-05-13T04:25:51.037Z,0.60
2023-05-13T04:28:18.080Z,0.55
2023-05-13T04:30:44.788Z,0.20
2023-05-13T04:33:11.758Z,0.40
2023-05-13T04:35:38.274Z,0.35
2023-05-13T04:38:05.713Z,0.25
2023-05-13T04:40:32.311Z,0.38
2023-05-13T04:42:58.806Z,0.20
2023-05-13T04:45:25.531Z,0.40
2023-05-13T04:47:52.311Z,0.28
2023-05-13T04:50:19.012Z,0.30
2023-05-13T04:52:47.303Z,0.40
2023-05-13T04:55:14.004Z,0.82
2023-05-13T04:57:40.529Z,0.73
2023-05-13T05:00:09.413Z,0.65
2023-05-13T05:02:35.952Z,0.32
2023-05-13T05:05:02.752Z,0.40
2023-05-13T05:07:29.600Z,0.40
2023-05-13T05:09:56.154Z,0.60
2023-05-13T05:12:22.722Z,0.50
2023-05-13T05:14:49.213Z,0.35
2023-05-13T05:17:16.054Z,0.47
2023-05-13T05:19:42.584Z,0.47
2023-05-13T05:22:09.077Z,0.40
2023-05-13T05:24:35.554Z,0.40
2023-05-13T05:27:02.250Z,0.30
2023-05-13T05:29:28.789Z,0.20
2023-05-13T05:31:55.552Z,0.40
2023-05-13T05:34:22.328Z,0.35
2023-05-13T05:36:48.812Z,0.30
2023-05-13T05:39:15.897Z,0.40
2023-05-13T05:41:42.394Z,0.50
2023-05-13T05:44:09.057Z,0.30
2023-05-13T05:46:35.631Z,0.30
2023-05-13T05:49:03.640Z,0.40
2023-05-13T05:51:30.327Z,0.30
2023-05-13T05:53:56.818Z,0.32
2023-05-13T05:56:23.289Z,0.40
2023-05-13T05:58:49.813Z,0.32
2023-05-13T06:01:16.365Z,0.22
2023-05-13T06:03:43.019Z,0.40
2023-05-13T06:06:09.633Z,0.30
2023-05-13T06:08:36.137Z,0.35
2023-05-13T06:11:02.645Z,0.40
2023-05-13T06:13:29.215Z,0.50
2023-05-13T06:15:55.824Z,1.13
2023-05-13T06:18:22.874Z,0.20
2023-05-13T06:20:49.508Z,0.38
2023-05-13T06:23:16.723Z,0.43
2023-05-13T06:25:43.262Z,0.30
2023-05-13T06:28:11.030Z,0.40
2023-05-13T06:33:04.937Z,0.70
2023-05-13T06:35:31.581Z,0.43
2023-05-13T06:37:58.093Z,0.40
2023-05-13T06:40:24.864Z,0.30
2023-05-13T06:42:51.475Z,0.45
2023-05-13T06:45:18.525Z,0.50
2023-05-13T06:47:45.073Z,0.32
2023-05-13T06:50:11.603Z,0.30
2023-05-13T06:52:39.461Z,0.30
2023-05-13T06:55:08.832Z,0.40
2023-05-13T06:57:42.492Z,0.40
2023-05-13T07:00:10.543Z,0.40
2023-05-13T07:02:37.105Z,0.28
2023-05-13T07:05:03.929Z,0.40
2023-05-13T07:07:30.466Z,0.35
2023-05-13T07:09:57.162Z,0.40
2023-05-13T07:12:23.677Z,0.40
2023-05-13T07:14:50.377Z,0.40
2023-05-13T07:17:17.244Z,0.50
2023-05-13T07:19:43.969Z,0.60
2023-05-13T07:22:10.498Z,0.70
2023-05-13T07:24:37.075Z,1.55
2023-05-13T07:27:03.866Z,0.50
2023-05-13T07:29:32.247Z,0.55
2023-05-13T07:32:03.714Z,0.60
2023-05-13T07:34:30.272Z,0.70
2023-05-13T07:36:56.776Z,0.60
2023-05-13T07:39:23.704Z,0.60
2023-05-13T07:41:50.429Z,0.80
2023-05-13T07:44:16.975Z,0.52
2023-05-13T07:46:43.461Z,0.70
2023-05-13T07:49:09.967Z,0.50
2023-05-13T07:51:36.506Z,0.50
2023-05-13T07:54:03.088Z,0.60
2023-05-13T07:56:30.326Z,0.60
2023-05-13T07:58:57.934Z,0.50
2023-05-13T08:01:24.586Z,0.50
2023-05-13T08:03:51.305Z,0.75
2023-05-13T08:06:18.019Z,0.80
2023-05-13T08:08:44.489Z,0.55
2023-05-13T08:11:12.329Z,0.50
2023-05-13T08:13:39.096Z,0.50
2023-05-13T08:16:07.337Z,0.50
2023-05-13T08:18:33.976Z,0.60
2023-05-13T08:21:00.580Z,0.60
2023-05-13T08:23:40.371Z,1.08
2023-05-13T08:26:10.620Z,0.80
2023-05-13T08:28:38.022Z,0.80
2023-05-13T08:31:04.971Z,1.05
2023-05-13T08:33:32.432Z,0.68
2023-05-13T08:36:00.942Z,1.15
2023-05-13T08:38:27.466Z,0.80
2023-05-13T08:40:54.112Z,0.70
2023-05-13T08:43:24.151Z,0.60
2023-05-13T08:45:53.327Z,0.77
2023-05-13T08:48:20.936Z,0.80
2023-05-13T08:50:48.618Z,0.70
2023-05-13T08:55:43.012Z,0.55
2023-05-13T08:58:09.580Z,0.50
2023-05-13T09:00:36.898Z,0.65
2023-05-13T09:03:03.593Z,0.70
2023-05-13T09:05:31.803Z,0.50
2023-05-13T09:07:58.818Z,0.60
2023-05-13T09:10:25.375Z,0.50
2023-05-13T09:12:55.742Z,0.30
2023-05-13T09:15:26.738Z,0.70
2023-05-13T09:18:00.079Z,0.50
2023-05-13T09:20:27.393Z,0.50
2023-05-13T09:23:01.307Z,0.40
2023-05-13T09:25:28.607Z,1.58
2023-05-13T09:28:01.541Z,0.50
2023-05-13T09:30:30.845Z,0.88
2023-05-13T09:33:13.615Z,0.40
2023-05-13T09:35:53.749Z,0.50
2023-05-13T09:38:28.915Z,0.55
2023-05-13T09:40:58.033Z,0.43
2023-05-13T09:43:31.332Z,0.50
2023-05-13T09:46:03.259Z,0.45
2023-05-13T09:48:31.977Z,0.70
2023-05-13T09:50:59.326Z,0.52
2023-05-13T09:53:26.955Z,0.50
2023-05-13T09:55:55.473Z,0.60
2023-05-13T09:58:24.308Z,0.43
2023-05-13T10:00:51.999Z,0.35
2023-05-13T10:05:45.602Z,0.57
2023-05-13T10:08:14.031Z,0.47
2023-05-13T10:10:42.297Z,0.30
2023-05-13T10:13:10.948Z,0.30
2023-05-13T10:15:52.583Z,0.40
2023-05-13T10:18:20.983Z,0.30
2023-05-13T10:20:52.886Z,0.30
2023-05-13T10:23:20.589Z,0.30
2023-05-13T10:25:55.392Z,0.30
2023-05-13T10:28:22.485Z,0.20
2023-05-13T10:30:50.126Z,0.20
2023-05-13T10:33:17.179Z,0.40
2023-05-13T10:35:59.999Z,0.30
2023-05-13T10:39:01.407Z,0.28
2023-05-13T10:41:59.008Z,0.22
2023-05-13T10:44:26.205Z,0.25
2023-05-13T10:46:52.824Z,0.20
2023-05-13T10:49:22.423Z,0.22
2023-05-13T10:51:51.342Z,0.20
2023-05-13T10:54:20.263Z,0.20
2023-05-13T10:56:55.821Z,0.20
2023-05-13T10:59:22.394Z,0.13
2023-05-13T11:01:49.136Z,0.35
2023-05-13T11:04:18.524Z,0.32
2023-05-13T11:06:46.428Z,0.30
2023-05-13T11:09:30.660Z,0.38
2023-05-13T11:11:59.579Z,0.35
2023-05-13T11:14:31.641Z,0.28
2023-05-13T11:17:04.469Z,0.28
2023-05-13T11:19:36.093Z,0.20
2023-05-13T11:22:14.504Z,0.20
2023-05-13T11:24:41.531Z,0.20
2023-05-13T11:27:16.343Z,0.30
2023-05-13T11:29:53.421Z,0.20
2023-05-13T11:32:53.946Z,0.30
2023-05-13T11:35:24.450Z,0.30
2023-05-13T11:37:51.250Z,0.50
2023-05-13T11:40:32.235Z,0.20
2023-05-13T11:42:59.775Z,0.20
2023-05-13T11:45:27.709Z,0.10
2023-05-13T11:47:56.053Z,0.20
2023-05-13T11:50:30.822Z,0.20
2023-05-13T11:52:59.593Z,0.22
2023-05-13T11:55:35.144Z,0.30
2023-05-13T11:58:02.380Z,0.20
2023-05-13T12:00:31.017Z,0.10
2023-05-13T12:02:58.713Z,0.30
2023-05-13T12:05:26.543Z,0.10
2023-05-13T12:07:57.966Z,0.10
2023-05-13T12:10:25.090Z,0.28
2023-05-13T12:12:51.751Z,0.28
2023-05-13T12:15:20.860Z,0.10
2023-05-13T12:17:49.401Z,0.30
2023-05-13T12:20:20.918Z,0.00
2023-05-13T12:22:47.397Z,0.10
2023-05-13T12:25:36.424Z,0.20
2023-05-13T12:28:19.728Z,0.17
2023-05-13T12:31:01.371Z,0.10
2023-05-13T12:33:46.838Z,0.00
2023-05-13T12:36:35.893Z,0.05
2023-05-13T12:39:08.895Z,0.20
2023-05-13T12:41:37.746Z,0.00
2023-05-13T12:44:14.272Z,0.00
2023-05-13T12:46:54.506Z,0.10
2023-05-13T12:49:22.304Z,0.10
2023-05-13T12:51:48.930Z,0.10
2023-05-13T12:54:15.602Z,0.30
2023-05-13T12:56:42.126Z,0.10
2023-05-13T12:59:09.186Z,0.13
2023-05-13T13:01:36.424Z,0.00
2023-05-13T13:04:03.146Z,0.10
2023-05-13T13:06:29.798Z,0.10
2023-05-13T13:08:56.271Z,0.10
2023-05-13T13:11:23.139Z,0.10
2023-05-13T13:13:50.385Z,0.10
2023-05-13T13:16:16.958Z,0.10
2023-05-13T13:18:43.564Z,0.20
2023-05-13T13:21:10.537Z,0.00
2023-05-13T13:23:37.103Z,0.05
2023-05-13T13:26:03.998Z,0.10
2023-05-13T13:28:31.688Z,0.15
2023-05-13T13:30:59.524Z,0.28
2023-05-13T13:35:52.490Z,0.00
2023-05-13T13:38:18.982Z,0.40
2023-05-13T13:40:45.720Z,0.10
2023-05-13T13:43:12.283Z,0.05
2023-05-13T13:45:39.096Z,0.17
2023-05-13T13:48:06.128Z,0.10
2023-05-13T13:50:32.744Z,0.10
2023-05-13T13:52:59.262Z,0.10
2023-05-13T13:55:26.971Z,0.10
2023-05-13T14:00:19.982Z,0.20
2023-05-13T14:02:46.765Z,0.22
2023-05-13T14:05:13.672Z,0.30
2023-05-13T14:07:40.261Z,0.38
2023-05-13T14:10:07.808Z,0.65
2023-05-13T14:12:35.886Z,0.52
2023-05-13T14:15:02.601Z,0.52
2023-05-13T14:17:29.251Z,0.50
2023-05-13T14:19:55.981Z,0.60
2023-05-13T14:22:23.773Z,0.40
2023-05-13T14:24:51.874Z,0.45
2023-05-13T14:27:18.792Z,0.40
2023-05-13T14:29:49.113Z,0.43
2023-05-13T14:32:16.084Z,0.30
2023-05-13T14:34:43.102Z,0.20
2023-05-13T14:37:09.639Z,0.20
2023-05-13T14:39:36.374Z,0.25
2023-05-13T14:42:03.724Z,0.28
2023-05-13T14:44:30.513Z,0.20
2023-05-13T14:46:57.198Z,0.25
2023-05-13T14:49:23.834Z,0.20
2023-05-13T14:51:50.453Z,0.20
2023-05-13T14:54:17.795Z,0.30
2023-05-13T14:56:44.738Z,0.20
2023-05-13T14:59:11.403Z,0.20
2023-05-13T15:01:38.466Z,0.20
2023-05-13T15:04:05.352Z,0.38
2023-05-13T15:06:32.060Z,0.17
2023-05-13T15:08:58.634Z,0.30
2023-05-13T15:11:27.721Z,0.20
2023-05-13T15:13:54.243Z,0.20
2023-05-13T15:16:20.997Z,0.20
2023-05-13T15:18:47.697Z,0.20
2023-05-13T15:21:14.205Z,0.20
2023-05-13T15:23:40.679Z,0.20
2023-05-13T15:26:07.211Z,0.22
2023-05-13T15:28:33.726Z,0.30
2023-05-13T15:31:00.342Z,0.10
2023-05-13T15:33:26.968Z,0.30
2023-05-13T15:35:53.531Z,0.80
2023-05-13T15:38:20.068Z,0.40
2023-05-13T15:40:47.418Z,0.45
2023-05-13T15:43:13.910Z,0.20
2023-05-13T15:45:40.495Z,0.30
2023-05-13T15:48:07.350Z,0.20
2023-05-13T15:50:34.396Z,0.20
2023-05-13T15:53:00.989Z,0.20
2023-05-13T15:55:27.516Z,0.20
2023-05-13T15:57:53.981Z,0.22
2023-05-13T16:00:20.764Z,0.10
2023-05-13T16:02:47.530Z,0.22
2023-05-13T16:05:15.634Z,0.30
2023-05-13T16:07:42.727Z,0.25
2023-05-13T16:10:09.609Z,0.30
2023-05-13T16:12:36.737Z,0.20
2023-05-13T16:15:04.215Z,0.20
2023-05-13T16:17:30.737Z,0.25
2023-05-13T16:19:57.281Z,0.10
2023-05-13T16:22:26.434Z,0.30
2023-05-13T16:24:52.933Z,0.13
2023-05-13T16:27:20.477Z,0.10
2023-05-13T16:29:47.135Z,0.10
2023-05-13T16:32:13.621Z,0.20
2023-05-13T16:34:40.103Z,0.20
2023-05-13T16:37:06.592Z,0.30
2023-05-13T16:39:33.059Z,0.30
2023-05-13T16:41:59.806Z,0.15
2023-05-13T16:44:26.285Z,0.38
2023-05-13T16:46:52.769Z,0.30
2023-05-13T16:49:19.541Z,0.40
2023-05-13T16:51:46.062Z,0.30
2023-05-13T16:54:12.529Z,0.40
2023-05-13T16:56:39.026Z,0.20
2023-05-13T16:59:05.568Z,0.20
2023-05-13T17:01:32.091Z,0.32
2023-05-13T17:03:58.728Z,0.20
2023-05-13T17:06:25.866Z,0.30
2023-05-13T17:08:52.372Z,0.40
2023-05-13T17:11:18.876Z,0.17
2023-05-13T17:13:45.580Z,0.43
2023-05-13T17:16:12.091Z,0.60
2023-05-13T17:18:38.647Z,0.65
2023-05-13T17:21:05.405Z,0.65
2023-05-13T17:23:31.956Z,0.70
2023-05-13T17:25:58.625Z,0.70
2023-05-13T17:28:25.127Z,0.70
2023-05-13T17:30:51.639Z,0.70
2023-05-13T17:33:18.148Z,0.70
2023-05-13T17:35:44.651Z,3.25
2023-05-13T17:38:11.293Z,9.15
2023-05-13T17:40:37.809Z,17.77
2023-05-13T17:43:04.611Z,13.32
2023-05-13T17:45:31.130Z,10.90
2023-05-13T17:47:57.919Z,11.82
2023-05-13T17:50:24.682Z,13.65
2023-05-13T17:52:51.307Z,17.23
2023-05-13T17:55:17.913Z,13.45
2023-05-13T17:57:44.398Z,15.82
2023-05-13T18:00:11.587Z,17.33
2023-05-13T18:02:40.075Z,18.52
2023-05-13T18:05:07.576Z,16.15
2023-05-13T18:07:34.063Z,14.90
2023-05-13T18:10:00.698Z,14.68
2023-05-13T18:12:27.355Z,15.57
2023-05-13T18:14:53.828Z,13.70
2023-05-13T18:17:20.537Z,13.30
2023-05-13T18:19:47.074Z,12.02
2023-05-13T18:22:13.659Z,11.32
2023-05-13T18:24:40.965Z,11.30
2023-05-13T18:27:08.152Z,10.95
2023-05-13T18:29:35.506Z,9.32
2023-05-13T18:32:02.650Z,9.02
2023-05-13T18:34:29.288Z,8.18
2023-05-13T18:36:55.909Z,8.02
2023-05-13T18:39:22.695Z,7.68
2023-05-13T18:41:49.367Z,7.00
2023-05-13T18:44:16.116Z,6.93
2023-05-13T18:46:44.454Z,7.22
2023-05-13T18:49:11.603Z,6.35
2023-05-13T18:51:38.177Z,5.90
2023-05-13T18:54:05.130Z,5.82
2023-05-13T18:56:32.143Z,5.45
2023-05-13T18:58:58.788Z,5.57
2023-05-13T19:01:26.028Z,4.82
2023-05-13T19:03:52.708Z,4.75
2023-05-13T19:06:19.399Z,4.40
2023-05-13T19:08:46.128Z,3.83
2023-05-13T19:11:13.665Z,3.47
2023-05-13T19:16:12.570Z,2.90
2023-05-13T19:18:39.068Z,2.50
2023-05-13T19:21:05.590Z,3.22
2023-05-13T19:23:32.064Z,2.92
2023-05-13T19:25:59.050Z,3.33
2023-05-13T19:28:27.530Z,2.72
2023-05-13T19:30:54.036Z,2.08
2023-05-13T19:33:20.593Z,2.30
2023-05-13T19:35:47.106Z,1.88
2023-05-13T19:38:13.611Z,1.55
2023-05-13T19:40:40.187Z,1.98
2023-05-13T19:43:06.720Z,1.52
2023-05-13T19:45:33.248Z,1.73
2023-05-13T19:47:59.783Z,2.00
2023-05-13T19:50:26.374Z,1.73
2023-05-13T19:52:53.136Z,2.03
2023-05-13T19:55:20.319Z,1.80
2023-05-13T19:57:47.778Z,1.48
2023-05-13T20:00:15.168Z,1.35
2023-05-13T20:02:41.872Z,1.10
2023-05-13T20:05:08.986Z,1.45
2023-05-13T20:07:35.515Z,1.13
2023-05-13T20:10:02.276Z,1.30
2023-05-13T20:12:28.791Z,1.15
2023-05-13T20:14:58.824Z,1.02
2023-05-13T20:17:25.782Z,1.20
2023-05-13T20:19:54.588Z,1.00
2023-05-13T20:22:21.470Z,1.30
2023-05-13T20:24:50.516Z,0.77
2023-05-13T20:27:17.873Z,1.20
2023-05-13T20:29:46.990Z,1.20
2023-05-13T20:32:14.680Z,1.15
2023-05-13T20:37:08.079Z,0.93
2023-05-13T20:39:34.601Z,0.95
2023-05-13T20:42:01.153Z,1.05
2023-05-13T20:44:27.730Z,1.00
2023-05-13T20:46:54.219Z,0.90
2023-05-13T20:49:20.977Z,0.90
2023-05-13T20:51:48.168Z,0.80
2023-05-13T20:54:15.525Z,0.90
2023-05-13T20:56:42.089Z,0.60
2023-05-13T20:59:08.891Z,0.80
2023-05-13T21:01:35.942Z,0.80
2023-05-13T21:04:05.376Z,0.70
2023-05-13T21:06:32.959Z,0.60
2023-05-13T21:08:59.514Z,0.70
2023-05-13T21:11:26.295Z,0.52
2023-05-13T21:13:52.809Z,0.90
2023-05-13T21:16:19.294Z,0.70
2023-05-13T21:18:45.894Z,3.03
2023-05-13T21:21:12.681Z,0.70
2023-05-13T21:23:40.856Z,1.90
2023-05-13T21:26:07.382Z,1.60
2023-05-13T21:28:34.031Z,1.10
2023-05-13T21:31:00.762Z,1.38
2023-05-13T21:33:28.349Z,1.30
2023-05-13T21:35:56.331Z,1.67
2023-05-13T21:38:23.315Z,1.58
2023-05-13T21:40:49.957Z,8.82
2023-05-13T21:43:16.450Z,24.00
2023-05-13T21:45:43.039Z,20.50
2023-05-13T21:48:09.679Z,18.95
2023-05-13T21:50:36.275Z,16.45
2023-05-13T21:53:03.359Z,18.25
2023-05-13T21:55:33.977Z,16.05
2023-05-13T21:58:02.055Z,12.00
2023-05-13T22:00:28.576Z,11.80
2023-05-13T22:02:57.265Z,12.40
2023-05-13T22:05:24.066Z,10.07
2023-05-13T22:07:51.164Z,11.43
2023-05-13T22:10:17.693Z,9.38
2023-05-13T22:12:44.249Z,10.13
2023-05-13T22:15:11.161Z,7.40
2023-05-13T22:17:37.713Z,8.18
2023-05-13T22:20:04.538Z,7.82
2023-05-13T22:22:31.060Z,6.93
2023-05-13T22:24:57.550Z,6.78
2023-05-13T22:27:24.035Z,5.22
2023-05-13T22:29:50.698Z,5.80
2023-05-13T22:32:17.241Z,5.03
2023-05-13T22:34:43.764Z,4.70
2023-05-13T22:37:10.283Z,5.15
2023-05-13T22:39:36.802Z,4.32
2023-05-13T22:42:03.289Z,4.35
2023-05-13T22:44:29.774Z,3.83
2023-05-13T22:46:56.333Z,3.38
2023-05-13T22:49:22.927Z,3.10
2023-05-13T22:51:49.728Z,3.20
2023-05-13T22:54:16.229Z,2.92
2023-05-13T22:56:42.738Z,2.70
2023-05-13T22:59:09.387Z,1.98
2023-05-13T23:01:35.971Z,1.92
2023-05-13T23:04:03.284Z,2.15
2023-05-13T23:06:29.869Z,1.63
2023-05-13T23:08:57.487Z,1.60
2023-05-13T23:11:24.048Z,1.50
2023-05-13T23:13:50.647Z,1.67
2023-05-13T23:16:18.959Z,1.85
2023-05-13T23:18:45.708Z,1.20
2023-05-13T23:21:12.203Z,1.10
2023-05-13T23:23:39.019Z,0.98
2023-05-13T23:26:05.823Z,1.33
2023-05-13T23:28:33.009Z,1.40
2023-05-13T23:30:59.507Z,1.00
2023-05-13T23:33:26.149Z,0.90
2023-05-13T23:35:54.310Z,1.13
2023-05-13T23:38:21.358Z,0.90
2023-05-13T23:40:48.248Z,0.80
2023-05-13T23:43:15.029Z,0.73
2023-05-13T23:45:41.666Z,0.85
2023-05-13T23:48:08.276Z,0.80
2023-05-13T23:50:34.855Z,0.80
2023-05-13T23:53:01.371Z,0.80
2023-05-13T23:55:27.937Z,1.10
2023-05-13T23:57:55.202Z,0.93
